RYR992R LIPZ-LICR
Flight info
| Callsign | RYR992R |
|---|---|
| Flight time | 1h 23m |
| Altitude | 35000 |
| Route | CHI DCT ARDAM DCT BELOV DCT AMLON DCT SOR/N0338F190 Q58 FOSQA |
| Aircraft | B738/M-SDE2E3FGHIRWXY/LB1 |
Departure
| Time | 2026-04-26 12:26 |
|---|---|
| Airport | Venice Marco Polo Airport (LIPZ) |
Arrival
| Time | 2026-04-26 13:49 |
|---|---|
| Airport | Reggio Calabria Airport (LICR) |
| Time | Latitude | Longitude | Altitude | Speed | Heading |
|---|---|---|---|---|---|
| 2026-04-26 12:02 | 45.50139 | 12.34028 | 15 ft | 0 kts | 311° |
| 2026-04-26 12:18 | 45.50139 | 12.34029 | 15 ft | 1 kts | 311° |
| 2026-04-26 12:18 | 45.50125 | 12.34054 | 18 ft | 4 kts | 297° |
| 2026-04-26 12:18 | 45.50116 | 12.34090 | 17 ft | 4 kts | 272° |
| 2026-04-26 12:18 | 45.50121 | 12.34125 | 16 ft | 4 kts | 235° |
| 2026-04-26 12:19 | 45.50127 | 12.34137 | 17 ft | 0 kts | 221° |
| 2026-04-26 12:22 | 45.50117 | 12.34125 | 16 ft | 4 kts | 221° |
| 2026-04-26 12:22 | 45.50079 | 12.34077 | 15 ft | 11 kts | 220° |
| 2026-04-26 12:22 | 45.50011 | 12.33990 | 15 ft | 16 kts | 223° |
| 2026-04-26 12:23 | 45.49917 | 12.33871 | 15 ft | 20 kts | 214° |
| 2026-04-26 12:23 | 45.49780 | 12.33814 | 15 ft | 21 kts | 190° |
| 2026-04-26 12:23 | 45.49654 | 12.33734 | 16 ft | 20 kts | 221° |
| 2026-04-26 12:23 | 45.49576 | 12.33701 | 17 ft | 7 kts | 154° |
| 2026-04-26 12:24 | 45.49574 | 12.33703 | 17 ft | 0 kts | 148° |
| 2026-04-26 12:24 | 45.49569 | 12.33708 | 16 ft | 2 kts | 142° |
| 2026-04-26 12:24 | 45.49557 | 12.33722 | 15 ft | 3 kts | 141° |
| 2026-04-26 12:25 | 45.49508 | 12.33894 | 14 ft | 19 kts | 65° |
| 2026-04-26 12:25 | 45.49615 | 12.34043 | 13 ft | 28 kts | 43° |
| 2026-04-26 12:25 | 45.49886 | 12.34386 | 12 ft | 85 kts | 41° |
| 2026-04-26 12:25 | 45.50494 | 12.35164 | 13 ft | 146 kts | 42° |
| 2026-04-26 12:26 | 45.51327 | 12.36228 | 297 ft | 170 kts | 42° |
| 2026-04-26 12:26 | 45.52257 | 12.37367 | 840 ft | 185 kts | 43° |
| 2026-04-26 12:26 | 45.53262 | 12.38638 | 1428 ft | 195 kts | 44° |
| 2026-04-26 12:26 | 45.54026 | 12.40125 | 2394 ft | 182 kts | 72° |
| 2026-04-26 12:27 | 45.54024 | 12.41967 | 2855 ft | 199 kts | 110° |
| 2026-04-26 12:27 | 45.53607 | 12.43869 | 3490 ft | 205 kts | 101° |
| 2026-04-26 12:27 | 45.53195 | 12.45823 | 4039 ft | 213 kts | 122° |
| 2026-04-26 12:27 | 45.51963 | 12.47140 | 4271 ft | 237 kts | 163° |
| 2026-04-26 12:28 | 45.50284 | 12.47037 | 4753 ft | 248 kts | 194° |
| 2026-04-26 12:28 | 45.48607 | 12.46281 | 5266 ft | 256 kts | 197° |
| 2026-04-26 12:28 | 45.46941 | 12.45505 | 5986 ft | 254 kts | 197° |
| 2026-04-26 12:28 | 45.45255 | 12.44719 | 6665 ft | 256 kts | 197° |
| 2026-04-26 12:29 | 45.43433 | 12.43885 | 7161 ft | 273 kts | 197° |
| 2026-04-26 12:29 | 45.41662 | 12.43087 | 7772 ft | 283 kts | 197° |
| 2026-04-26 12:29 | 45.37809 | 12.41377 | 9388 ft | 295 kts | 197° |
| 2026-04-26 12:30 | 45.35837 | 12.40512 | 10319 ft | 295 kts | 197° |
| 2026-04-26 12:30 | 45.33852 | 12.39645 | 10849 ft | 312 kts | 198° |
| 2026-04-26 12:30 | 45.31690 | 12.38704 | 11125 ft | 336 kts | 197° |
| 2026-04-26 12:31 | 45.27123 | 12.36726 | 12775 ft | 344 kts | 198° |
| 2026-04-26 12:31 | 45.24815 | 12.35728 | 13619 ft | 349 kts | 198° |
| 2026-04-26 12:31 | 45.22471 | 12.34716 | 14430 ft | 354 kts | 198° |
| 2026-04-26 12:31 | 45.20047 | 12.33918 | 15141 ft | 362 kts | 185° |
| 2026-04-26 12:32 | 45.17535 | 12.34231 | 15944 ft | 366 kts | 164° |
| 2026-04-26 12:32 | 45.15194 | 12.35595 | 16754 ft | 370 kts | 154° |
| 2026-04-26 12:32 | 45.10454 | 12.38776 | 18232 ft | 383 kts | 154° |
| 2026-04-26 12:33 | 45.08015 | 12.40386 | 18892 ft | 389 kts | 154° |
| 2026-04-26 12:33 | 45.05540 | 12.42005 | 19580 ft | 393 kts | 155° |
| 2026-04-26 12:33 | 45.03072 | 12.43607 | 20257 ft | 397 kts | 155° |
| 2026-04-26 12:33 | 45.00547 | 12.45239 | 20921 ft | 401 kts | 155° |
| 2026-04-26 12:34 | 44.97989 | 12.46887 | 21564 ft | 406 kts | 155° |
| 2026-04-26 12:34 | 44.95399 | 12.48551 | 22217 ft | 410 kts | 155° |
| 2026-04-26 12:34 | 44.92776 | 12.50235 | 22849 ft | 415 kts | 155° |
| 2026-04-26 12:34 | 44.90129 | 12.51932 | 23470 ft | 419 kts | 155° |
| 2026-04-26 12:35 | 44.87482 | 12.53627 | 24010 ft | 423 kts | 156° |
| 2026-04-26 12:35 | 44.84783 | 12.55355 | 24588 ft | 425 kts | 156° |
| 2026-04-26 12:35 | 44.82081 | 12.57082 | 25140 ft | 428 kts | 156° |
| 2026-04-26 12:35 | 44.79356 | 12.58823 | 25653 ft | 431 kts | 156° |
| 2026-04-26 12:36 | 44.76645 | 12.60552 | 26163 ft | 434 kts | 156° |
| 2026-04-26 12:36 | 44.73867 | 12.62323 | 26616 ft | 438 kts | 156° |
| 2026-04-26 12:36 | 44.71080 | 12.64097 | 27095 ft | 442 kts | 156° |
| 2026-04-26 12:36 | 44.68267 | 12.65887 | 27608 ft | 444 kts | 156° |
| 2026-04-26 12:37 | 44.65443 | 12.67681 | 28087 ft | 447 kts | 156° |
| 2026-04-26 12:37 | 44.62590 | 12.69492 | 28547 ft | 450 kts | 156° |
| 2026-04-26 12:37 | 44.59730 | 12.71306 | 28993 ft | 453 kts | 156° |
| 2026-04-26 12:37 | 44.56884 | 12.73108 | 29427 ft | 455 kts | 156° |
| 2026-04-26 12:38 | 44.53972 | 12.74951 | 29864 ft | 458 kts | 156° |
| 2026-04-26 12:38 | 44.51048 | 12.76799 | 30266 ft | 461 kts | 156° |
| 2026-04-26 12:38 | 44.48115 | 12.78651 | 30620 ft | 463 kts | 157° |
| 2026-04-26 12:38 | 44.45168 | 12.80510 | 30967 ft | 465 kts | 157° |
| 2026-04-26 12:39 | 44.42248 | 12.82350 | 31306 ft | 467 kts | 157° |
| 2026-04-26 12:39 | 44.39277 | 12.84220 | 31668 ft | 468 kts | 157° |
| 2026-04-26 12:39 | 44.36295 | 12.86095 | 32118 ft | 467 kts | 157° |
| 2026-04-26 12:39 | 44.33327 | 12.87901 | 32661 ft | 463 kts | 160° |
| 2026-04-26 12:40 | 44.30281 | 12.89329 | 33187 ft | 459 kts | 165° |
| 2026-04-26 12:40 | 44.27260 | 12.90574 | 33642 ft | 458 kts | 166° |
| 2026-04-26 12:40 | 44.24195 | 12.91779 | 34050 ft | 457 kts | 166° |
| 2026-04-26 12:40 | 44.21126 | 12.92977 | 34405 ft | 457 kts | 166° |
| 2026-04-26 12:41 | 44.18061 | 12.94185 | 34776 ft | 456 kts | 166° |
| 2026-04-26 12:41 | 44.15012 | 12.95404 | 35106 ft | 456 kts | 166° |
| 2026-04-26 12:41 | 44.11930 | 12.96650 | 35099 ft | 463 kts | 165° |
| 2026-04-26 12:42 | 44.05808 | 12.99151 | 35097 ft | 452 kts | 165° |
| 2026-04-26 12:42 | 43.99889 | 13.01580 | 35105 ft | 439 kts | 165° |
| 2026-04-26 12:43 | 43.94009 | 13.03983 | 35127 ft | 440 kts | 165° |
| 2026-04-26 12:43 | 43.88155 | 13.06367 | 35128 ft | 441 kts | 165° |
| 2026-04-26 12:44 | 43.82261 | 13.08763 | 35118 ft | 442 kts | 165° |
| 2026-04-26 12:44 | 43.76488 | 13.11106 | 35122 ft | 441 kts | 165° |
| 2026-04-26 12:45 | 43.70651 | 13.13471 | 35117 ft | 441 kts | 165° |
| 2026-04-26 12:45 | 43.64750 | 13.15856 | 35098 ft | 441 kts | 165° |
| 2026-04-26 12:46 | 43.58850 | 13.18235 | 35113 ft | 442 kts | 165° |
| 2026-04-26 12:46 | 43.52952 | 13.20610 | 35115 ft | 442 kts | 165° |
| 2026-04-26 12:47 | 43.47039 | 13.22985 | 35117 ft | 442 kts | 165° |
| 2026-04-26 12:47 | 43.41135 | 13.25352 | 35110 ft | 442 kts | 165° |
| 2026-04-26 12:48 | 43.35223 | 13.27717 | 35116 ft | 442 kts | 165° |
| 2026-04-26 12:48 | 43.29315 | 13.30077 | 35113 ft | 442 kts | 165° |
| 2026-04-26 12:49 | 43.23409 | 13.32430 | 35110 ft | 442 kts | 165° |
| 2026-04-26 12:49 | 43.17541 | 13.34763 | 35110 ft | 442 kts | 165° |
| 2026-04-26 12:50 | 43.11634 | 13.37108 | 35115 ft | 442 kts | 165° |
| 2026-04-26 12:50 | 43.05726 | 13.39448 | 35117 ft | 442 kts | 165° |
| 2026-04-26 12:51 | 42.99826 | 13.41779 | 35119 ft | 441 kts | 165° |
| 2026-04-26 12:51 | 42.93932 | 13.44105 | 35106 ft | 441 kts | 166° |
| 2026-04-26 12:52 | 42.88047 | 13.46422 | 35133 ft | 440 kts | 166° |
| 2026-04-26 12:52 | 42.82164 | 13.48733 | 35109 ft | 440 kts | 166° |
| 2026-04-26 12:53 | 42.76287 | 13.51038 | 35128 ft | 440 kts | 166° |
| 2026-04-26 12:53 | 42.70403 | 13.53341 | 35120 ft | 440 kts | 166° |
| 2026-04-26 12:54 | 42.64519 | 13.55640 | 35124 ft | 440 kts | 166° |
| 2026-04-26 12:54 | 42.58637 | 13.57932 | 35116 ft | 440 kts | 166° |
| 2026-04-26 12:55 | 42.52742 | 13.60226 | 35118 ft | 440 kts | 166° |
| 2026-04-26 12:55 | 42.46873 | 13.62504 | 35124 ft | 440 kts | 166° |
| 2026-04-26 12:56 | 42.40975 | 13.64790 | 35109 ft | 440 kts | 166° |
| 2026-04-26 12:56 | 42.35078 | 13.67071 | 35113 ft | 440 kts | 166° |
| 2026-04-26 12:57 | 42.29222 | 13.69332 | 35121 ft | 440 kts | 166° |
| 2026-04-26 12:57 | 42.23328 | 13.71603 | 35112 ft | 440 kts | 166° |
| 2026-04-26 12:58 | 42.14497 | 13.74997 | 35119 ft | 440 kts | 166° |
| 2026-04-26 12:58 | 42.08605 | 13.77256 | 35118 ft | 440 kts | 166° |
| 2026-04-26 12:59 | 42.02748 | 13.79497 | 35121 ft | 440 kts | 166° |
| 2026-04-26 12:59 | 41.96853 | 13.81749 | 35120 ft | 440 kts | 166° |
| 2026-04-26 13:00 | 41.90960 | 13.83995 | 35122 ft | 440 kts | 166° |
| 2026-04-26 13:00 | 41.85080 | 13.86233 | 35127 ft | 439 kts | 166° |
| 2026-04-26 13:01 | 41.79229 | 13.88455 | 35124 ft | 439 kts | 166° |
| 2026-04-26 13:01 | 41.73335 | 13.90689 | 35126 ft | 439 kts | 166° |
| 2026-04-26 13:02 | 41.67446 | 13.92916 | 35128 ft | 439 kts | 166° |
| 2026-04-26 13:02 | 41.61581 | 13.95131 | 35124 ft | 440 kts | 166° |
| 2026-04-26 13:03 | 41.55687 | 13.97352 | 35131 ft | 439 kts | 166° |
| 2026-04-26 13:03 | 41.49797 | 13.99568 | 35128 ft | 438 kts | 166° |
| 2026-04-26 13:04 | 41.43961 | 14.01759 | 35122 ft | 438 kts | 166° |
| 2026-04-26 13:04 | 41.38083 | 14.03962 | 35137 ft | 437 kts | 166° |
| 2026-04-26 13:05 | 41.32217 | 14.06156 | 35128 ft | 437 kts | 166° |
| 2026-04-26 13:05 | 41.26391 | 14.08332 | 35146 ft | 436 kts | 166° |
| 2026-04-26 13:06 | 41.20541 | 14.10512 | 35153 ft | 436 kts | 166° |
| 2026-04-26 13:06 | 41.14717 | 14.12678 | 35157 ft | 436 kts | 166° |
| 2026-04-26 13:07 | 41.08869 | 14.14850 | 35153 ft | 436 kts | 166° |
| 2026-04-26 13:07 | 41.03046 | 14.17008 | 35161 ft | 436 kts | 166° |
| 2026-04-26 13:08 | 40.97184 | 14.19176 | 35157 ft | 436 kts | 165° |
| 2026-04-26 13:08 | 40.91337 | 14.21335 | 35160 ft | 436 kts | 166° |
| 2026-04-26 13:09 | 40.85512 | 14.23481 | 35159 ft | 436 kts | 166° |
| 2026-04-26 13:09 | 40.79653 | 14.25638 | 35157 ft | 436 kts | 166° |
| 2026-04-26 13:10 | 40.73829 | 14.27777 | 35150 ft | 436 kts | 166° |
| 2026-04-26 13:10 | 40.67973 | 14.29924 | 35151 ft | 436 kts | 165° |
| 2026-04-26 13:11 | 40.62143 | 14.32058 | 35151 ft | 435 kts | 165° |
| 2026-04-26 13:11 | 40.56315 | 14.34214 | 35154 ft | 435 kts | 164° |
| 2026-04-26 13:12 | 40.50533 | 14.36582 | 35147 ft | 435 kts | 163° |
| 2026-04-26 13:12 | 40.44771 | 14.38998 | 35150 ft | 434 kts | 163° |
| 2026-04-26 13:13 | 40.39979 | 14.40989 | 35155 ft | 434 kts | 163° |
| 2026-04-26 13:13 | 40.34210 | 14.43365 | 35155 ft | 433 kts | 163° |
| 2026-04-26 13:14 | 40.28439 | 14.45729 | 35155 ft | 433 kts | 163° |
| 2026-04-26 13:14 | 40.22684 | 14.48080 | 35155 ft | 433 kts | 163° |
| 2026-04-26 13:15 | 40.16932 | 14.50427 | 35155 ft | 433 kts | 164° |
| 2026-04-26 13:15 | 40.11218 | 14.52754 | 35155 ft | 433 kts | 164° |
| 2026-04-26 13:16 | 40.05459 | 14.55096 | 35155 ft | 433 kts | 164° |
| 2026-04-26 13:16 | 39.99694 | 14.57436 | 35155 ft | 433 kts | 164° |
| 2026-04-26 13:17 | 39.91102 | 14.60916 | 35105 ft | 427 kts | 164° |
| 2026-04-26 13:18 | 39.85499 | 14.63181 | 34483 ft | 415 kts | 164° |
| 2026-04-26 13:18 | 39.82756 | 14.64289 | 34131 ft | 411 kts | 164° |
| 2026-04-26 13:18 | 39.77340 | 14.66472 | 33344 ft | 404 kts | 164° |
| 2026-04-26 13:19 | 39.74664 | 14.67549 | 32967 ft | 400 kts | 164° |
| 2026-04-26 13:19 | 39.72052 | 14.68600 | 32613 ft | 396 kts | 164° |
| 2026-04-26 13:19 | 39.69428 | 14.69654 | 32252 ft | 393 kts | 164° |
| 2026-04-26 13:19 | 39.66817 | 14.70703 | 31903 ft | 389 kts | 163° |
| 2026-04-26 13:20 | 39.64236 | 14.71739 | 31555 ft | 386 kts | 163° |
| 2026-04-26 13:20 | 39.61671 | 14.72767 | 31211 ft | 383 kts | 163° |
| 2026-04-26 13:20 | 39.59128 | 14.73786 | 30871 ft | 380 kts | 164° |
| 2026-04-26 13:20 | 39.56635 | 14.74784 | 30539 ft | 378 kts | 164° |
| 2026-04-26 13:21 | 39.54124 | 14.75789 | 30195 ft | 376 kts | 163° |
| 2026-04-26 13:21 | 39.51630 | 14.76786 | 29796 ft | 373 kts | 163° |
| 2026-04-26 13:21 | 39.49160 | 14.77772 | 29445 ft | 369 kts | 163° |
| 2026-04-26 13:21 | 39.46751 | 14.78734 | 29115 ft | 364 kts | 163° |
| 2026-04-26 13:22 | 39.44340 | 14.79697 | 28744 ft | 361 kts | 164° |
| 2026-04-26 13:22 | 39.41948 | 14.80650 | 28413 ft | 358 kts | 164° |
| 2026-04-26 13:22 | 39.39573 | 14.81596 | 28060 ft | 355 kts | 163° |
| 2026-04-26 13:22 | 39.37212 | 14.82535 | 27724 ft | 352 kts | 163° |
| 2026-04-26 13:23 | 39.34906 | 14.83453 | 27391 ft | 349 kts | 163° |
| 2026-04-26 13:23 | 39.32588 | 14.84374 | 27057 ft | 347 kts | 163° |
| 2026-04-26 13:23 | 39.30284 | 14.85289 | 26738 ft | 345 kts | 163° |
| 2026-04-26 13:23 | 39.27984 | 14.86202 | 26401 ft | 345 kts | 164° |
| 2026-04-26 13:24 | 39.25686 | 14.87113 | 26078 ft | 347 kts | 163° |
| 2026-04-26 13:24 | 39.23344 | 14.88041 | 25754 ft | 356 kts | 164° |
| 2026-04-26 13:24 | 39.20953 | 14.88987 | 25407 ft | 360 kts | 164° |
| 2026-04-26 13:24 | 39.18597 | 14.89920 | 25057 ft | 358 kts | 164° |
| 2026-04-26 13:25 | 39.16229 | 14.90857 | 24712 ft | 355 kts | 164° |
| 2026-04-26 13:25 | 39.13842 | 14.91801 | 24363 ft | 353 kts | 164° |
| 2026-04-26 13:25 | 39.11535 | 14.92713 | 24029 ft | 351 kts | 164° |
| 2026-04-26 13:25 | 39.09178 | 14.93644 | 23674 ft | 349 kts | 164° |
| 2026-04-26 13:26 | 39.06888 | 14.94547 | 23285 ft | 347 kts | 164° |
| 2026-04-26 13:26 | 39.04558 | 14.95466 | 22917 ft | 344 kts | 164° |
| 2026-04-26 13:26 | 39.02307 | 14.96352 | 22585 ft | 341 kts | 164° |
| 2026-04-26 13:26 | 39.00043 | 14.97244 | 22244 ft | 338 kts | 164° |
| 2026-04-26 13:27 | 38.97802 | 14.98125 | 21911 ft | 336 kts | 164° |
| 2026-04-26 13:27 | 38.95577 | 14.99001 | 21586 ft | 333 kts | 164° |
| 2026-04-26 13:27 | 38.93370 | 14.99868 | 21264 ft | 330 kts | 164° |
| 2026-04-26 13:27 | 38.91181 | 15.00727 | 20942 ft | 328 kts | 164° |
| 2026-04-26 13:28 | 38.89003 | 15.01582 | 20628 ft | 326 kts | 164° |
| 2026-04-26 13:28 | 38.86842 | 15.02429 | 20307 ft | 324 kts | 164° |
| 2026-04-26 13:28 | 38.84679 | 15.03277 | 19991 ft | 322 kts | 164° |
| 2026-04-26 13:28 | 38.82543 | 15.04113 | 19680 ft | 320 kts | 164° |
| 2026-04-26 13:29 | 38.80414 | 15.04947 | 19377 ft | 319 kts | 164° |
| 2026-04-26 13:29 | 38.79015 | 15.05495 | 19164 ft | 318 kts | 164° |
| 2026-04-26 13:29 | 38.76219 | 15.06588 | 18754 ft | 316 kts | 164° |
| 2026-04-26 13:29 | 38.74118 | 15.07409 | 18444 ft | 315 kts | 164° |
| 2026-04-26 13:30 | 38.72026 | 15.08225 | 18090 ft | 314 kts | 164° |
| 2026-04-26 13:30 | 38.70009 | 15.09290 | 17752 ft | 313 kts | 149° |
| 2026-04-26 13:30 | 38.68276 | 15.10938 | 17514 ft | 309 kts | 141° |
| 2026-04-26 13:30 | 38.66635 | 15.12717 | 17194 ft | 308 kts | 140° |
| 2026-04-26 13:31 | 38.65014 | 15.14500 | 16883 ft | 306 kts | 140° |
| 2026-04-26 13:31 | 38.63400 | 15.16267 | 16593 ft | 304 kts | 140° |
| 2026-04-26 13:31 | 38.61792 | 15.18016 | 16292 ft | 302 kts | 141° |
| 2026-04-26 13:31 | 38.60211 | 15.19724 | 15996 ft | 300 kts | 141° |
| 2026-04-26 13:32 | 38.58613 | 15.21444 | 15703 ft | 299 kts | 141° |
| 2026-04-26 13:32 | 38.57024 | 15.23150 | 15408 ft | 297 kts | 141° |
| 2026-04-26 13:32 | 38.55439 | 15.24849 | 15115 ft | 296 kts | 141° |
| 2026-04-26 13:32 | 38.53865 | 15.26534 | 14814 ft | 294 kts | 141° |
| 2026-04-26 13:33 | 38.52294 | 15.28214 | 14535 ft | 293 kts | 141° |
| 2026-04-26 13:33 | 38.50731 | 15.29832 | 14240 ft | 292 kts | 146° |
| 2026-04-26 13:33 | 38.48994 | 15.31159 | 13961 ft | 290 kts | 153° |
| 2026-04-26 13:33 | 38.47204 | 15.32348 | 13618 ft | 289 kts | 152° |
| 2026-04-26 13:34 | 38.45468 | 15.33668 | 13251 ft | 290 kts | 148° |
| 2026-04-26 13:34 | 38.43775 | 15.35071 | 12948 ft | 288 kts | 147° |
| 2026-04-26 13:34 | 38.42103 | 15.36473 | 12652 ft | 287 kts | 147° |
| 2026-04-26 13:34 | 38.40998 | 15.37395 | 12458 ft | 286 kts | 147° |
| 2026-04-26 13:35 | 38.38799 | 15.39221 | 12076 ft | 283 kts | 147° |
| 2026-04-26 13:35 | 38.37145 | 15.40584 | 11787 ft | 282 kts | 147° |
| 2026-04-26 13:35 | 38.35499 | 15.41934 | 11499 ft | 281 kts | 147° |
| 2026-04-26 13:35 | 38.33861 | 15.43274 | 11209 ft | 280 kts | 147° |
| 2026-04-26 13:36 | 38.32225 | 15.44609 | 10926 ft | 279 kts | 147° |
| 2026-04-26 13:36 | 38.30593 | 15.45939 | 10639 ft | 278 kts | 147° |
| 2026-04-26 13:36 | 38.28970 | 15.47260 | 10364 ft | 277 kts | 147° |
| 2026-04-26 13:36 | 38.27366 | 15.48564 | 10224 ft | 270 kts | 147° |
| 2026-04-26 13:37 | 38.25792 | 15.49843 | 9990 ft | 268 kts | 147° |
| 2026-04-26 13:37 | 38.24215 | 15.51123 | 9702 ft | 268 kts | 147° |
| 2026-04-26 13:37 | 38.22666 | 15.52381 | 9416 ft | 267 kts | 147° |
| 2026-04-26 13:37 | 38.21099 | 15.53652 | 9148 ft | 266 kts | 147° |
| 2026-04-26 13:38 | 38.19539 | 15.54916 | 8876 ft | 265 kts | 147° |
| 2026-04-26 13:38 | 38.18004 | 15.56160 | 8617 ft | 264 kts | 147° |
| 2026-04-26 13:38 | 38.16452 | 15.57417 | 8342 ft | 264 kts | 147° |
| 2026-04-26 13:38 | 38.14901 | 15.58673 | 8076 ft | 263 kts | 147° |
| 2026-04-26 13:39 | 38.13360 | 15.59920 | 7812 ft | 262 kts | 148° |
| 2026-04-26 13:39 | 38.11857 | 15.61135 | 7670 ft | 256 kts | 148° |
| 2026-04-26 13:39 | 38.10366 | 15.62339 | 7546 ft | 249 kts | 148° |
| 2026-04-26 13:39 | 38.08919 | 15.63507 | 7445 ft | 243 kts | 148° |
| 2026-04-26 13:40 | 38.07429 | 15.64477 | 7227 ft | 242 kts | 167° |
| 2026-04-26 13:40 | 38.05809 | 15.64308 | 7113 ft | 232 kts | 208° |
| 2026-04-26 13:40 | 38.04646 | 15.63015 | 7005 ft | 223 kts | 231° |
| 2026-04-26 13:40 | 38.03400 | 15.61875 | 6948 ft | 226 kts | 194° |
| 2026-04-26 13:41 | 38.01843 | 15.62074 | 6939 ft | 233 kts | 155° |
| 2026-04-26 13:41 | 38.00306 | 15.62849 | 6554 ft | 247 kts | 170° |
| 2026-04-26 13:41 | 37.98559 | 15.63186 | 5960 ft | 260 kts | 172° |
| 2026-04-26 13:41 | 37.96755 | 15.63607 | 5568 ft | 265 kts | 169° |
| 2026-04-26 13:42 | 37.94973 | 15.64090 | 5279 ft | 264 kts | 168° |
| 2026-04-26 13:42 | 37.93189 | 15.64603 | 5047 ft | 260 kts | 168° |
| 2026-04-26 13:42 | 37.91476 | 15.65106 | 4973 ft | 244 kts | 167° |
| 2026-04-26 13:42 | 37.89865 | 15.65582 | 4864 ft | 229 kts | 167° |
| 2026-04-26 13:43 | 37.88351 | 15.65821 | 4724 ft | 212 kts | 192° |
| 2026-04-26 13:43 | 37.87129 | 15.65001 | 4614 ft | 193 kts | 227° |
| 2026-04-26 13:43 | 37.86474 | 15.63629 | 4510 ft | 180 kts | 255° |
| 2026-04-26 13:43 | 37.86423 | 15.62105 | 4358 ft | 170 kts | 284° |
| 2026-04-26 13:44 | 37.86930 | 15.60770 | 4213 ft | 171 kts | 310° |
| 2026-04-26 13:44 | 37.87904 | 15.59909 | 4028 ft | 176 kts | 346° |
| 2026-04-26 13:44 | 37.89123 | 15.60025 | 3873 ft | 177 kts | 12° |
| 2026-04-26 13:44 | 37.90333 | 15.60367 | 3661 ft | 177 kts | 11° |
| 2026-04-26 13:45 | 37.91510 | 15.60763 | 3469 ft | 176 kts | 16° |
| 2026-04-26 13:45 | 37.92659 | 15.61241 | 3256 ft | 173 kts | 17° |
| 2026-04-26 13:45 | 37.93798 | 15.61738 | 2995 ft | 172 kts | 18° |
| 2026-04-26 13:45 | 37.94932 | 15.62235 | 2739 ft | 173 kts | 18° |
| 2026-04-26 13:46 | 37.96065 | 15.62731 | 2467 ft | 172 kts | 18° |
| 2026-04-26 13:46 | 37.97169 | 15.63214 | 2221 ft | 161 kts | 18° |
| 2026-04-26 13:46 | 37.98189 | 15.63660 | 1970 ft | 148 kts | 18° |
| 2026-04-26 13:46 | 37.99121 | 15.64068 | 1804 ft | 140 kts | 18° |
| 2026-04-26 13:47 | 38.00054 | 15.64499 | 1618 ft | 144 kts | 18° |
| 2026-04-26 13:47 | 38.00986 | 15.64928 | 1437 ft | 140 kts | 17° |
| 2026-04-26 13:47 | 38.01895 | 15.65318 | 1265 ft | 138 kts | 14° |
| 2026-04-26 13:47 | 38.02805 | 15.65647 | 1090 ft | 137 kts | 11° |
| 2026-04-26 13:48 | 38.03730 | 15.65926 | 902 ft | 137 kts | 9° |
| 2026-04-26 13:48 | 38.04636 | 15.66165 | 663 ft | 130 kts | 9° |
| 2026-04-26 13:48 | 38.05498 | 15.66158 | 427 ft | 120 kts | 343° |
| 2026-04-26 13:48 | 38.06244 | 15.65725 | 202 ft | 116 kts | 336° |
| 2026-04-26 13:49 | 38.06908 | 15.65287 | 58 ft | 97 kts | 340° |
| 2026-04-26 13:49 | 38.07358 | 15.65004 | 62 ft | 48 kts | 333° |
| 2026-04-26 13:49 | 38.07525 | 15.64899 | 59 ft | 11 kts | 339° |
| 2026-04-26 13:49 | 38.07596 | 15.64866 | 59 ft | 11 kts | 344° |
| 2026-04-26 13:50 | 38.07611 | 15.64843 | 57 ft | 3 kts | 272° |
| 2026-04-26 13:50 | 38.07604 | 15.64824 | 62 ft | 3 kts | 233° |
| 2026-04-26 13:50 | 38.07570 | 15.64823 | 58 ft | 9 kts | 154° |
| 2026-04-26 13:50 | 38.07520 | 15.64880 | 58 ft | 11 kts | 142° |
| 2026-04-26 13:51 | 38.07437 | 15.64947 | 59 ft | 21 kts | 150° |
| 2026-04-26 13:51 | 38.07307 | 15.65047 | 58 ft | 13 kts | 127° |
| 2026-04-26 13:51 | 38.07310 | 15.65151 | 56 ft | 13 kts | 64° |
| 2026-04-26 13:51 | 38.07358 | 15.65219 | 59 ft | 1 kts | 9° |
| 2026-04-26 13:52 | 38.07370 | 15.65220 | 61 ft | 4 kts | 0° |
| 2026-04-26 13:52 | 38.07408 | 15.65222 | 56 ft | 7 kts | 28° |
| 2026-04-26 13:52 | 38.07416 | 15.65246 | 58 ft | 3 kts | 85° |
| 2026-04-26 13:52 | 38.07417 | 15.65265 | 61 ft | 0 kts | 85° |